createdAt,value
2017-09-26T00:00:20.677Z,98483.70
2017-09-26T00:00:52.319Z,98489.67
2017-09-26T00:01:24.267Z,98490.52
2017-09-26T00:01:56.828Z,98490.09
2017-09-26T00:02:28.474Z,98492.22
2017-09-26T00:03:00.113Z,98492.61
2017-09-26T00:03:31.725Z,98488.77
2017-09-26T00:04:03.345Z,98484.94
2017-09-26T00:04:34.965Z,98490.05
2017-09-26T00:05:06.585Z,98487.92
2017-09-26T00:05:38.330Z,98496.02
2017-09-26T00:06:09.967Z,98490.48
2017-09-26T00:06:41.653Z,98486.22
2017-09-26T00:07:13.293Z,98489.63
2017-09-26T00:07:44.937Z,98489.20
2017-09-26T00:08:16.842Z,98493.88
2017-09-26T00:08:48.666Z,98487.50
2017-09-26T00:09:20.433Z,98486.65
2017-09-26T00:09:52.263Z,98485.36
2017-09-26T00:10:24.025Z,98489.16
2017-09-26T00:10:55.685Z,98491.33
2017-09-26T00:11:27.328Z,98484.52
2017-09-26T00:11:59.258Z,98489.63
2017-09-26T00:12:31.104Z,98484.94
2017-09-26T00:13:02.753Z,98490.48
2017-09-26T00:13:34.400Z,98488.34
2017-09-26T00:14:06.088Z,98484.94
2017-09-26T00:14:37.735Z,98487.07
2017-09-26T00:15:09.415Z,98481.95
2017-09-26T00:15:41.069Z,98487.07
2017-09-26T00:16:12.717Z,98491.77
2017-09-26T00:16:44.358Z,98487.96
2017-09-26T00:17:16.002Z,98490.94
2017-09-26T00:17:47.654Z,98491.80
2017-09-26T00:18:19.297Z,98488.78
2017-09-26T00:18:51.217Z,98490.52
2017-09-26T00:19:22.865Z,98484.98
2017-09-26T00:19:54.513Z,98484.13
2017-09-26T00:20:26.161Z,98486.69
2017-09-26T00:20:57.809Z,98486.69
2017-09-26T00:21:29.456Z,98491.37
2017-09-26T00:22:01.101Z,98482.85
2017-09-26T00:22:32.745Z,98489.66
2017-09-26T00:23:04.385Z,98488.82
2017-09-26T00:23:36.034Z,98489.25
2017-09-26T00:24:07.945Z,98490.53
2017-09-26T00:24:39.593Z,98486.70
2017-09-26T00:25:11.428Z,98487.97
2017-09-26T00:25:43.178Z,98486.30
2017-09-26T00:26:14.825Z,98487.97
2017-09-26T00:26:46.469Z,98489.72
2017-09-26T00:27:18.117Z,98481.20
2017-09-26T00:27:49.765Z,98489.30
2017-09-26T00:28:21.418Z,98490.14
2017-09-26T00:28:53.061Z,98486.73
2017-09-26T00:29:24.976Z,98489.72
2017-09-26T00:29:56.624Z,98485.03
2017-09-26T00:30:28.265Z,98488.88
2017-09-26T00:30:59.913Z,98491.43
2017-09-26T00:31:31.564Z,98487.59
2017-09-26T00:32:03.209Z,98488.02
2017-09-26T00:32:34.854Z,98488.02
2017-09-26T00:33:06.502Z,98495.25
2017-09-26T00:33:38.725Z,98490.16
2017-09-26T00:34:10.990Z,98491.89
2017-09-26T00:34:44.464Z,98488.91
2017-09-26T00:35:16.130Z,98488.06
2017-09-26T00:35:47.818Z,98487.59
2017-09-26T00:36:19.709Z,98488.02
2017-09-26T00:36:51.365Z,98490.15
2017-09-26T00:37:23.013Z,98485.89
2017-09-26T00:37:54.933Z,98487.16
2017-09-26T00:38:27.679Z,98484.19
2017-09-26T00:38:59.445Z,98486.78
2017-09-26T00:39:31.106Z,98488.06
2017-09-26T00:40:02.753Z,98488.88
2017-09-26T00:40:34.405Z,98492.70
2017-09-26T00:41:06.057Z,98488.45
2017-09-26T00:41:37.712Z,98485.50
2017-09-26T00:42:09.606Z,98485.50
2017-09-26T00:42:41.273Z,98487.17
2017-09-26T00:43:12.913Z,98482.48
2017-09-26T00:43:44.561Z,98488.91
2017-09-26T00:44:16.205Z,98488.48
2017-09-26T00:44:47.849Z,98484.23
2017-09-26T00:45:19.493Z,98487.20
2017-09-26T00:45:51.133Z,98484.66
2017-09-26T00:46:23.229Z,98484.23
2017-09-26T00:46:54.995Z,98483.80
2017-09-26T00:47:26.753Z,98482.94
2017-09-26T00:47:58.402Z,98488.05
2017-09-26T00:48:30.046Z,98486.74
2017-09-26T00:49:01.693Z,98494.02
2017-09-26T00:49:33.509Z,98483.34
2017-09-26T00:50:05.157Z,98485.50
2017-09-26T00:50:36.806Z,98489.72
2017-09-26T00:51:08.454Z,98486.36
2017-09-26T00:51:40.387Z,98484.23
2017-09-26T00:52:12.336Z,98489.34
2017-09-26T00:52:43.985Z,98480.39
2017-09-26T00:53:15.633Z,98483.80
2017-09-26T00:53:47.569Z,98482.09
2017-09-26T00:54:19.433Z,98486.79
2017-09-26T00:54:51.081Z,98484.23
2017-09-26T00:55:22.826Z,98479.55
2017-09-26T00:55:54.472Z,98485.52
2017-09-26T00:56:26.393Z,98482.95
2017-09-26T00:56:58.341Z,98482.10
2017-09-26T00:57:30.005Z,98479.16
2017-09-26T00:58:01.848Z,98480.40
2017-09-26T00:58:33.499Z,98478.30
2017-09-26T00:59:05.149Z,98488.96
2017-09-26T00:59:36.799Z,98482.56
2017-09-26T01:00:08.461Z,98479.59
2017-09-26T01:00:40.141Z,98477.45
2017-09-26T01:01:15.471Z,98484.69
2017-09-26T01:01:47.129Z,98480.02
2017-09-26T01:02:19.061Z,98482.14
2017-09-26T01:02:50.713Z,98477.46
2017-09-26T01:03:27.261Z,98479.20
2017-09-26T01:04:02.896Z,98478.73
2017-09-26T01:04:34.561Z,98480.02
2017-09-26T01:05:24.306Z,98479.20
2017-09-26T01:06:08.526Z,98483.42
2017-09-26T01:06:45.850Z,98477.03
2017-09-26T01:07:32.409Z,98481.29
2017-09-26T01:08:04.066Z,98480.87
2017-09-26T01:08:35.772Z,98482.58
2017-09-26T01:09:07.614Z,98483.42
2017-09-26T01:09:39.283Z,98477.50
2017-09-26T01:10:11.232Z,98479.63
2017-09-26T01:10:42.881Z,98479.21
2017-09-26T01:11:14.526Z,98477.94
2017-09-26T01:11:46.174Z,98475.41
2017-09-26T01:12:17.817Z,98478.83
2017-09-26T01:12:49.465Z,98480.96
2017-09-26T01:13:21.110Z,98486.07
2017-09-26T01:13:53.006Z,98483.94
2017-09-26T01:14:24.672Z,98486.11
2017-09-26T01:14:56.624Z,98488.23
2017-09-26T01:15:28.273Z,98479.25
2017-09-26T01:15:59.921Z,98483.98
2017-09-26T01:16:31.565Z,98479.72
2017-09-26T01:17:03.213Z,98479.73
2017-09-26T01:17:34.857Z,98487.39
2017-09-26T01:18:06.502Z,98478.02
2017-09-26T01:18:38.145Z,98482.28
2017-09-26T01:19:09.881Z,98488.67
2017-09-26T01:19:41.529Z,98478.88
2017-09-26T01:20:13.186Z,98489.98
2017-09-26T01:20:44.838Z,98487.44
2017-09-26T01:21:16.490Z,98483.99
2017-09-26T01:21:48.145Z,98482.71
2017-09-26T01:22:19.924Z,98489.95
2017-09-26T01:22:51.848Z,98482.28
2017-09-26T01:23:23.509Z,98481.85
2017-09-26T01:23:55.458Z,98483.98
2017-09-26T01:24:27.153Z,98491.19
2017-09-26T01:24:58.827Z,98484.37
2017-09-26T01:25:30.690Z,98488.63
2017-09-26T01:26:02.342Z,98483.55
2017-09-26T01:26:34.002Z,98487.39
2017-09-26T01:27:05.657Z,98488.67
2017-09-26T01:27:37.305Z,98489.95
2017-09-26T01:28:08.957Z,98489.52
2017-09-26T01:28:40.807Z,98490.80
2017-09-26T01:29:12.490Z,98483.56
2017-09-26T01:29:44.177Z,98487.39
2017-09-26T01:30:15.817Z,98497.20
2017-09-26T01:30:49.476Z,98493.35
2017-09-26T01:31:22.131Z,98493.78
2017-09-26T01:31:53.817Z,98493.82
2017-09-26T01:32:25.466Z,98492.94
2017-09-26T01:32:57.114Z,98494.22
2017-09-26T01:33:28.761Z,98491.27
2017-09-26T01:34:00.950Z,98489.52
2017-09-26T01:34:32.904Z,98486.97
2017-09-26T01:35:04.557Z,98494.63
2017-09-26T01:35:36.252Z,98487.36
2017-09-26T01:36:08.134Z,98493.74
2017-09-26T01:36:39.784Z,98494.17
2017-09-26T01:37:11.433Z,98492.08
2017-09-26T01:37:43.085Z,98494.20
2017-09-26T01:38:14.766Z,98492.08
2017-09-26T01:38:46.604Z,98491.23
2017-09-26T01:39:18.253Z,98484.84
2017-09-26T01:39:49.937Z,98490.38
2017-09-26T01:40:21.886Z,98486.97
2017-09-26T01:40:53.573Z,98484.45
2017-09-26T01:41:25.217Z,98491.27
2017-09-26T01:41:56.869Z,98492.55
2017-09-26T01:42:28.761Z,98489.14
2017-09-26T01:43:00.710Z,98491.27
2017-09-26T01:43:32.662Z,98487.02
2017-09-26T01:44:04.309Z,98491.70
2017-09-26T01:44:35.988Z,98492.55
2017-09-26T01:45:07.886Z,98496.85
2017-09-26T01:45:39.843Z,98493.45
2017-09-26T01:46:11.705Z,98494.69
2017-09-26T01:46:43.349Z,98490.45
2017-09-26T01:47:14.994Z,98493.45
2017-09-26T01:47:46.640Z,98495.58
2017-09-26T01:48:18.359Z,98486.64
2017-09-26T01:48:50.009Z,98489.62
2017-09-26T01:49:21.657Z,98481.17
2017-09-26T01:49:53.309Z,98493.02
2017-09-26T01:50:24.956Z,98495.16
2017-09-26T01:50:56.792Z,98495.16
2017-09-26T01:51:28.453Z,98489.19
2017-09-26T01:52:00.109Z,98491.75
2017-09-26T01:52:31.800Z,98494.34
2017-09-26T01:53:03.453Z,98490.08
2017-09-26T01:53:35.392Z,98490.08
2017-09-26T01:54:07.234Z,98486.25
2017-09-26T01:54:38.889Z,98492.64
2017-09-26T01:55:10.538Z,98496.89
2017-09-26T01:55:42.194Z,98490.94
2017-09-26T01:56:13.908Z,98491.79
2017-09-26T01:56:47.522Z,98493.06
2017-09-26T01:57:20.221Z,98491.79
2017-09-26T01:57:54.486Z,98489.23
2017-09-26T01:58:42.902Z,98489.23
2017-09-26T01:59:14.557Z,98490.52
2017-09-26T01:59:47.104Z,98490.52
2017-09-26T02:00:19.057Z,98494.34
2017-09-26T02:00:51.073Z,98483.27
2017-09-26T02:01:22.724Z,98491.36
2017-09-26T02:01:55.439Z,98490.09
2017-09-26T02:02:27.185Z,98489.66
2017-09-26T02:02:58.830Z,98489.66
2017-09-26T02:03:30.477Z,98495.62
2017-09-26T02:04:02.117Z,98489.70
2017-09-26T02:04:34.061Z,98497.75
2017-09-26T02:05:05.709Z,98494.81
2017-09-26T02:05:37.352Z,98493.11
2017-09-26T02:06:09.002Z,98491.83
2017-09-26T02:06:40.658Z,98497.33
2017-09-26T02:07:12.545Z,98496.47
2017-09-26T02:07:44.501Z,98491.79
2017-09-26T02:08:16.149Z,98496.94
2017-09-26T02:08:48.117Z,98491.36
2017-09-26T02:09:19.765Z,98502.87
2017-09-26T02:09:51.414Z,98497.33
2017-09-26T02:10:23.057Z,98499.49
2017-09-26T02:10:54.712Z,98500.77
2017-09-26T02:11:26.357Z,98498.61
2017-09-26T02:11:58.053Z,98499.92
2017-09-26T02:12:31.380Z,98499.88
2017-09-26T02:13:03.042Z,98496.94
2017-09-26T02:13:34.711Z,98496.52
2017-09-26T02:14:07.273Z,98499.92
2017-09-26T02:14:39.477Z,98501.20
2017-09-26T02:15:11.565Z,98498.64
2017-09-26T02:15:44.557Z,98497.36
2017-09-26T02:16:16.210Z,98500.77
2017-09-26T02:16:48.430Z,98502.05
2017-09-26T02:17:22.038Z,98496.52
2017-09-26T02:17:54.214Z,98496.09
2017-09-26T02:18:25.861Z,98498.22
2017-09-26T02:18:57.509Z,98495.66
2017-09-26T02:19:29.225Z,98496.48
2017-09-26T02:20:00.877Z,98494.81
2017-09-26T02:20:32.521Z,98497.33
2017-09-26T02:21:04.169Z,98501.20
2017-09-26T02:21:35.810Z,98499.03
2017-09-26T02:22:07.933Z,98498.17
2017-09-26T02:22:39.718Z,98496.48
2017-09-26T02:23:11.941Z,98500.31
2017-09-26T02:23:43.597Z,98494.34
2017-09-26T02:24:16.456Z,98499.07
2017-09-26T02:24:48.433Z,98504.61
2017-09-26T02:25:20.073Z,98505.00
2017-09-26T02:25:52.257Z,98503.33
2017-09-26T02:26:23.905Z,98496.52
2017-09-26T02:26:55.899Z,98499.92
2017-09-26T02:27:27.849Z,98500.78
2017-09-26T02:27:59.792Z,98506.74
2017-09-26T02:28:31.633Z,98497.38
2017-09-26T02:29:03.388Z,98506.31
2017-09-26T02:29:35.037Z,98501.24
2017-09-26T02:30:06.697Z,98503.38
2017-09-26T02:30:38.341Z,98496.95
2017-09-26T02:31:10.264Z,98506.19
2017-09-26T02:31:42.489Z,98503.58
2017-09-26T02:32:15.081Z,98500.98
2017-09-26T02:32:48.793Z,98503.16
2017-09-26T02:33:20.441Z,98505.38
2017-09-26T02:33:52.090Z,98497.38
2017-09-26T02:34:23.799Z,98501.72
2017-09-26T02:34:55.643Z,98498.86
2017-09-26T02:35:27.389Z,98497.67
2017-09-26T02:35:59.184Z,98503.33
2017-09-26T02:36:30.834Z,98505.08
2017-09-26T02:37:02.622Z,98506.86
2017-09-26T02:37:34.317Z,98506.90
2017-09-26T02:38:05.962Z,98509.10
2017-09-26T02:38:37.609Z,98509.14
2017-09-26T02:39:09.258Z,98510.45
2017-09-26T02:39:41.100Z,98507.09
2017-09-26T02:40:12.754Z,98505.42
2017-09-26T02:40:44.422Z,98504.61
2017-09-26T02:41:16.269Z,98511.03
2017-09-26T02:41:47.918Z,98505.03
2017-09-26T02:42:19.562Z,98507.52
2017-09-26T02:42:51.841Z,98510.77
2017-09-26T02:43:25.837Z,98509.38
2017-09-26T02:43:57.857Z,98514.78
2017-09-26T02:44:29.603Z,98513.42
2017-09-26T02:45:01.253Z,98515.13
2017-09-26T02:45:32.903Z,98518.49
2017-09-26T02:46:04.548Z,98509.55
2017-09-26T02:46:36.476Z,98512.95
2017-09-26T02:47:08.577Z,98514.23
2017-09-26T02:47:42.026Z,98514.66
2017-09-26T02:48:14.254Z,98516.32
2017-09-26T02:48:46.097Z,98512.79
2017-09-26T02:49:17.759Z,98515.64
2017-09-26T02:49:49.410Z,98516.84
2017-09-26T02:50:21.062Z,98519.73
2017-09-26T02:50:52.709Z,98512.02
2017-09-26T02:51:24.358Z,98516.22
2017-09-26T02:51:56.005Z,98516.14
2017-09-26T02:52:27.649Z,98515.23
2017-09-26T02:52:59.297Z,98513.48
2017-09-26T02:53:31.202Z,98513.45
2017-09-26T02:54:02.855Z,98510.41
2017-09-26T02:54:35.100Z,98508.32
2017-09-26T02:55:06.979Z,98514.34
2017-09-26T02:55:38.627Z,98513.16
2017-09-26T02:56:10.673Z,98512.39
2017-09-26T02:56:42.317Z,98517.98
2017-09-26T02:57:13.961Z,98519.30
2017-09-26T02:57:45.609Z,98517.64
2017-09-26T02:58:17.258Z,98518.50
2017-09-26T02:58:49.145Z,98519.81
2017-09-26T02:59:20.916Z,98516.45
2017-09-26T02:59:52.561Z,98521.56
2017-09-26T03:00:24.201Z,98522.02
2017-09-26T03:00:55.842Z,98519.05
2017-09-26T03:01:27.489Z,98513.52
2017-09-26T03:01:59.138Z,98519.90
2017-09-26T03:02:30.789Z,98522.87
2017-09-26T03:03:02.429Z,98518.20
2017-09-26T03:03:34.095Z,98522.84
2017-09-26T03:04:05.883Z,98521.98
2017-09-26T03:04:37.727Z,98524.13
2017-09-26T03:05:09.385Z,98518.19
2017-09-26T03:05:41.033Z,98521.14
2017-09-26T03:06:12.756Z,98519.86
2017-09-26T03:06:44.706Z,98522.41
2017-09-26T03:07:16.609Z,98521.14
2017-09-26T03:07:48.305Z,98521.56
2017-09-26T03:08:19.956Z,98517.73
2017-09-26T03:08:51.605Z,98516.45
2017-09-26T03:09:23.249Z,98520.28
2017-09-26T03:09:54.889Z,98516.88
2017-09-26T03:10:26.529Z,98521.52
2017-09-26T03:10:58.344Z,98519.39
2017-09-26T03:11:30.040Z,98523.22
2017-09-26T03:12:01.685Z,98518.54
2017-09-26T03:12:33.334Z,98521.52
2017-09-26T03:13:04.985Z,98521.09
2017-09-26T03:13:36.665Z,98522.37
2017-09-26T03:14:08.352Z,98519.39
2017-09-26T03:14:39.997Z,98523.23
2017-09-26T03:15:11.649Z,98518.97
2017-09-26T03:15:43.293Z,98525.39
2017-09-26T03:16:15.182Z,98524.08
2017-09-26T03:16:46.834Z,98523.27
2017-09-26T03:17:18.493Z,98523.27
2017-09-26T03:17:50.137Z,98524.55
2017-09-26T03:18:21.814Z,98519.01
2017-09-26T03:18:53.465Z,98525.83
2017-09-26T03:19:25.341Z,98524.59
2017-09-26T03:19:56.993Z,98522.45
2017-09-26T03:20:28.642Z,98519.48
2017-09-26T03:21:00.286Z,98526.30
2017-09-26T03:21:31.936Z,98527.14
2017-09-26T03:22:03.583Z,98524.59
2017-09-26T03:22:35.225Z,98518.20
2017-09-26T03:23:06.865Z,98524.63
2017-09-26T03:23:38.549Z,98525.05
2017-09-26T03:24:10.237Z,98522.92
2017-09-26T03:24:41.881Z,98520.38
2017-09-26T03:25:13.525Z,98522.08
2017-09-26T03:25:45.218Z,98521.23
2017-09-26T03:26:16.992Z,98515.72
2017-09-26T03:26:48.649Z,98525.52
2017-09-26T03:27:20.289Z,98521.69
2017-09-26T03:27:51.933Z,98523.39
2017-09-26T03:28:23.573Z,98521.70
2017-09-26T03:28:55.222Z,98519.17
2017-09-26T03:29:26.869Z,98523.05
2017-09-26T03:29:58.795Z,98526.45
2017-09-26T03:30:30.635Z,98519.64
2017-09-26T03:31:02.294Z,98528.98
2017-09-26T03:31:33.945Z,98524.75
2017-09-26T03:32:05.600Z,98525.19
2017-09-26T03:32:37.246Z,98525.61
2017-09-26T03:33:08.889Z,98523.91
2017-09-26T03:33:40.597Z,98525.22
2017-09-26T03:34:12.258Z,98523.52
2017-09-26T03:34:43.914Z,98524.38
2017-09-26T03:35:15.569Z,98527.35
2017-09-26T03:35:47.220Z,98522.24
2017-09-26T03:36:19.110Z,98528.24
2017-09-26T03:36:50.773Z,98524.84
2017-09-26T03:37:22.433Z,98526.97
2017-09-26T03:37:54.094Z,98525.27
2017-09-26T03:38:25.934Z,98524.45
2017-09-26T03:38:57.638Z,98531.69
2017-09-26T03:39:29.333Z,98524.02
2017-09-26T03:40:01.975Z,98526.58
2017-09-26T03:40:33.630Z,98526.16
2017-09-26T03:41:05.278Z,98527.86
2017-09-26T03:41:36.936Z,98528.71
2017-09-26T03:42:08.707Z,98533.86
2017-09-26T03:42:40.588Z,98531.30
2017-09-26T03:43:12.234Z,98527.05
2017-09-26T03:43:43.878Z,98528.75
2017-09-26T03:44:15.525Z,98526.23
2017-09-26T03:44:47.414Z,98528.36
2017-09-26T03:45:19.093Z,98530.07
2017-09-26T03:45:50.743Z,98529.22
2017-09-26T03:46:22.456Z,98536.03
2017-09-26T03:46:54.157Z,98528.38
2017-09-26T03:47:25.801Z,98530.11
2017-09-26T03:47:57.689Z,98531.39
2017-09-26T03:48:29.673Z,98530.53
2017-09-26T03:49:01.321Z,98531.81
2017-09-26T03:49:33.540Z,98533.12
2017-09-26T03:50:05.417Z,98532.28
2017-09-26T03:50:37.061Z,98536.11
2017-09-26T03:51:09.078Z,98535.27
2017-09-26T03:51:40.725Z,98536.08
2017-09-26T03:52:12.612Z,98535.27
2017-09-26T03:52:44.311Z,98531.00
2017-09-26T03:53:16.101Z,98529.73
2017-09-26T03:53:47.902Z,98535.69
2017-09-26T03:54:19.780Z,98532.28
2017-09-26T03:54:51.430Z,98531.44
2017-09-26T03:55:23.091Z,98528.88
2017-09-26T03:55:54.733Z,98537.82
2017-09-26T03:56:26.598Z,98531.86
2017-09-26T03:56:58.366Z,98530.16
2017-09-26T03:57:30.221Z,98539.09
2017-09-26T03:58:02.949Z,98534.02
2017-09-26T03:58:34.829Z,98533.17
2017-09-26T03:59:06.489Z,98536.97
2017-09-26T03:59:38.141Z,98531.44
2017-09-26T04:00:09.794Z,98529.77
2017-09-26T04:00:41.453Z,98529.34
2017-09-26T04:01:13.345Z,98529.34
2017-09-26T04:01:45.258Z,98530.63
2017-09-26T04:02:16.941Z,98532.75
2017-09-26T04:02:48.805Z,98533.59
2017-09-26T04:03:20.459Z,98528.06
2017-09-26T04:03:52.113Z,98540.41
2017-09-26T04:05:02.748Z,98533.21
2017-09-26T04:05:35.082Z,98537.05
2017-09-26T04:06:07.031Z,98534.48
2017-09-26T04:06:38.980Z,98532.79
2017-09-26T04:07:10.929Z,98537.90
2017-09-26T04:07:42.879Z,98531.52
2017-09-26T04:08:14.530Z,98533.67
2017-09-26T04:08:46.174Z,98531.97
2017-09-26T04:09:18.373Z,98531.13
2017-09-26T04:09:50.501Z,98536.23
2017-09-26T04:10:22.145Z,98528.56
2017-09-26T04:10:53.785Z,98525.59
2017-09-26T04:11:25.425Z,98534.95
2017-09-26T04:11:57.069Z,98529.00
2017-09-26T04:12:28.718Z,98532.83
2017-09-26T04:13:00.395Z,98528.61
2017-09-26T04:13:33.054Z,98529.88
2017-09-26T04:14:07.047Z,98529.03
2017-09-26T04:14:38.697Z,98529.03
2017-09-26T04:15:11.545Z,98532.02
2017-09-26T04:15:44.099Z,98530.73
2017-09-26T04:16:16.178Z,98529.03
2017-09-26T04:16:47.830Z,98532.87
2017-09-26T04:17:19.496Z,98532.87
2017-09-26T04:17:51.335Z,98532.02
2017-09-26T04:18:23.090Z,98535.88
2017-09-26T04:18:54.737Z,98528.22
2017-09-26T04:19:26.421Z,98531.20
2017-09-26T04:19:58.072Z,98530.34
2017-09-26T04:20:29.717Z,98535.45
2017-09-26T04:21:01.358Z,98530.77
2017-09-26T04:21:33.013Z,98528.65
2017-09-26T04:22:04.893Z,98532.91
2017-09-26T04:22:36.589Z,98540.98
2017-09-26T04:23:08.483Z,98533.79
2017-09-26T04:23:40.133Z,98543.16
2017-09-26T04:24:11.783Z,98534.64
2017-09-26T04:24:43.425Z,98530.38
2017-09-26T04:25:15.081Z,98532.94
2017-09-26T04:25:46.721Z,98535.92
2017-09-26T04:26:18.366Z,98540.17
2017-09-26T04:26:50.009Z,98534.64
2017-09-26T04:27:21.707Z,98541.88
2017-09-26T04:27:53.565Z,98538.05
2017-09-26T04:28:25.219Z,98542.30
2017-09-26T04:28:56.861Z,98536.80
2017-09-26T04:29:28.509Z,98533.80
2017-09-26T04:30:00.153Z,98535.53
2017-09-26T04:30:31.801Z,98537.66
2017-09-26T04:31:04.361Z,98541.48
2017-09-26T04:31:36.010Z,98541.48
2017-09-26T04:32:07.653Z,98541.91
2017-09-26T04:32:39.341Z,98545.74
2017-09-26T04:33:11.213Z,98541.91
2017-09-26T04:33:43.163Z,98543.19
2017-09-26T04:34:14.813Z,98542.77
2017-09-26T04:34:46.465Z,98541.91
2017-09-26T04:35:18.113Z,98550.86
2017-09-26T04:35:49.759Z,98539.82
2017-09-26T04:36:21.401Z,98546.20
2017-09-26T04:36:53.042Z,98543.23
2017-09-26T04:37:24.928Z,98541.95
2017-09-26T04:37:56.605Z,98545.78
2017-09-26T04:38:28.252Z,98541.10
2017-09-26T04:38:59.941Z,98549.19
2017-09-26T04:39:31.581Z,98541.10
2017-09-26T04:40:03.229Z,98545.78
2017-09-26T04:40:34.873Z,98544.08
2017-09-26T04:41:06.521Z,98540.67
2017-09-26T04:41:38.405Z,98545.36
2017-09-26T04:42:10.354Z,98540.71
2017-09-26T04:42:42.013Z,98547.52
2017-09-26T04:43:13.669Z,98541.56
2017-09-26T04:43:45.316Z,98541.13
2017-09-26T04:44:16.963Z,98541.98
2017-09-26T04:44:48.613Z,98545.82
2017-09-26T04:45:20.265Z,98541.98
2017-09-26T04:45:51.921Z,98541.98
2017-09-26T04:46:23.797Z,98540.28
2017-09-26T04:46:55.446Z,98536.48
2017-09-26T04:47:27.387Z,98539.05
2017-09-26T04:47:59.037Z,98537.77
2017-09-26T04:48:30.681Z,98539.89
2017-09-26T04:49:02.339Z,98539.89
2017-09-26T04:49:33.989Z,98545.00
2017-09-26T04:50:05.638Z,98546.28
2017-09-26T04:50:37.285Z,98539.89
2017-09-26T04:51:08.938Z,98539.47
2017-09-26T04:51:40.585Z,98545.00
2017-09-26T04:52:12.230Z,98546.28
2017-09-26T04:52:43.926Z,98549.69
2017-09-26T04:53:15.574Z,98549.72
2017-09-26T04:53:47.223Z,98545.00
2017-09-26T04:54:18.869Z,98545.00
2017-09-26T04:54:50.514Z,98544.61
2017-09-26T04:55:22.323Z,98551.42
2017-09-26T04:55:53.977Z,98542.48
2017-09-26T04:56:25.629Z,98544.61
2017-09-26T04:56:57.269Z,98550.14
2017-09-26T04:57:28.913Z,98548.87
2017-09-26T04:58:00.556Z,98550.14
2017-09-26T04:58:32.246Z,98545.89
2017-09-26T04:59:04.124Z,98547.16
2017-09-26T04:59:35.988Z,98548.02
2017-09-26T05:00:07.638Z,98548.90
2017-09-26T05:00:39.358Z,98548.44
2017-09-26T05:01:11.009Z,98550.17
2017-09-26T05:01:42.661Z,98548.44
2017-09-26T05:02:14.305Z,98544.22
2017-09-26T05:02:45.953Z,98554.44
2017-09-26T05:03:17.602Z,98551.88
2017-09-26T05:03:49.248Z,98553.16
2017-09-26T05:04:20.894Z,98553.58
2017-09-26T05:04:52.553Z,98550.17
2017-09-26T05:05:24.201Z,98550.17
2017-09-26T05:05:55.886Z,98548.05
2017-09-26T05:06:27.529Z,98550.17
2017-09-26T05:06:59.176Z,98549.75
2017-09-26T05:07:30.873Z,98545.95
2017-09-26T05:08:02.652Z,98547.63
2017-09-26T05:08:34.313Z,98548.48
2017-09-26T05:09:05.958Z,98545.53
2017-09-26T05:09:37.602Z,98549.75
2017-09-26T05:10:09.267Z,98550.18
2017-09-26T05:10:40.914Z,98551.06
2017-09-26T05:11:12.563Z,98545.92
2017-09-26T05:11:44.403Z,98542.52
2017-09-26T05:12:16.049Z,98546.35
2017-09-26T05:12:47.745Z,98546.77
2017-09-26T05:13:19.393Z,98546.38
2017-09-26T05:13:51.041Z,98548.94
2017-09-26T05:14:22.681Z,98549.36
2017-09-26T05:14:54.321Z,98542.55
2017-09-26T05:15:26.143Z,98549.78
2017-09-26T05:15:57.894Z,98552.34
2017-09-26T05:16:29.545Z,98554.47
2017-09-26T05:17:01.193Z,98552.77
2017-09-26T05:17:32.838Z,98550.64
2017-09-26T05:18:04.734Z,98552.77
2017-09-26T05:18:36.410Z,98555.28
2017-09-26T05:19:08.359Z,98551.48
2017-09-26T05:19:40.278Z,98550.21
2017-09-26T05:20:11.947Z,98547.23
2017-09-26T05:20:43.825Z,98548.05
2017-09-26T05:21:15.473Z,98550.17
2017-09-26T05:21:47.118Z,98551.45
2017-09-26T05:22:18.757Z,98551.03
2017-09-26T05:22:50.404Z,98553.55
2017-09-26T05:23:22.418Z,98559.08
2017-09-26T05:23:54.028Z,98552.27
2017-09-26T05:24:25.699Z,98555.22
2017-09-26T05:24:57.651Z,98548.84
2017-09-26T05:25:29.597Z,98553.52
2017-09-26T05:26:01.547Z,98553.09
2017-09-26T05:26:33.197Z,98555.21
2017-09-26T05:27:04.842Z,98554.36
2017-09-26T05:27:36.490Z,98559.86
2017-09-26T05:28:08.133Z,98555.17
2017-09-26T05:28:39.823Z,98557.27
2017-09-26T05:29:11.522Z,98558.55
2017-09-26T05:29:43.165Z,98561.06
2017-09-26T05:30:14.805Z,98558.13
2017-09-26T05:30:46.449Z,98563.20
2017-09-26T05:31:18.089Z,98561.49
2017-09-26T05:31:49.734Z,98557.66
2017-09-26T05:32:21.377Z,98564.89
2017-09-26T05:32:53.017Z,98558.52
2017-09-26T05:33:24.693Z,98558.94
2017-09-26T05:33:56.484Z,98565.33
2017-09-26T05:34:28.360Z,98558.51
2017-09-26T05:35:00.013Z,98566.59
2017-09-26T05:35:31.657Z,98566.14
2017-09-26T05:36:03.305Z,98563.16
2017-09-26T05:36:35.009Z,98559.33
2017-09-26T05:37:06.661Z,98561.42
2017-09-26T05:37:38.305Z,98564.83
2017-09-26T05:38:09.953Z,98561.81
2017-09-26T05:38:41.597Z,98561.81
2017-09-26T05:39:13.397Z,98560.53
2017-09-26T05:39:45.158Z,98564.79
2017-09-26T05:40:17.094Z,98565.64
2017-09-26T05:40:48.750Z,98565.64
2017-09-26T05:41:20.398Z,98561.42
2017-09-26T05:41:52.042Z,98561.81
2017-09-26T05:42:23.693Z,98565.22
2017-09-26T05:42:55.353Z,98563.52
2017-09-26T05:43:27.270Z,98561.38
2017-09-26T05:43:58.924Z,98565.64
2017-09-26T05:44:30.568Z,98565.64
2017-09-26T05:45:02.210Z,98562.70
2017-09-26T05:45:33.861Z,98568.20
2017-09-26T05:46:05.702Z,98561.84
2017-09-26T05:46:37.349Z,98558.02
2017-09-26T05:47:08.989Z,98561.42
2017-09-26T05:47:40.629Z,98560.14
2017-09-26T05:48:12.313Z,98558.87
2017-09-26T05:48:43.992Z,98559.30
2017-09-26T05:49:15.642Z,98556.73
2017-09-26T05:49:47.286Z,98560.57
2017-09-26T05:50:18.937Z,98562.27
2017-09-26T05:50:50.577Z,98565.71
2017-09-26T05:51:22.226Z,98557.20
2017-09-26T05:51:54.110Z,98562.73
2017-09-26T05:52:25.791Z,98560.18
2017-09-26T05:52:57.440Z,98570.39
2017-09-26T05:53:29.089Z,98565.71
2017-09-26T05:54:00.738Z,98569.12
2017-09-26T05:54:32.393Z,98560.61
2017-09-26T05:55:04.042Z,98558.05
2017-09-26T05:55:35.690Z,98561.88
2017-09-26T05:56:07.337Z,98563.16
2017-09-26T05:56:38.989Z,98561.03
2017-09-26T05:57:10.682Z,98566.56
2017-09-26T05:57:42.333Z,98564.44
2017-09-26T05:58:13.981Z,98559.36
2017-09-26T05:58:45.632Z,98564.05
2017-09-26T05:59:17.278Z,98565.33
2017-09-26T05:59:48.921Z,98563.20
2017-09-26T06:00:20.570Z,98565.75
2017-09-26T06:00:52.222Z,98566.60
2017-09-26T06:01:23.870Z,98567.87
2017-09-26T06:01:55.654Z,98569.16
2017-09-26T06:02:27.343Z,98570.00
2017-09-26T06:02:59.249Z,98566.63
2017-09-26T06:03:30.902Z,98567.06
2017-09-26T06:04:02.549Z,98569.61
2017-09-26T06:04:34.478Z,98568.34
2017-09-26T06:05:06.321Z,98572.59
2017-09-26T06:05:37.977Z,98570.89
2017-09-26T06:06:09.621Z,98567.91
2017-09-26T06:06:41.269Z,98576.00
2017-09-26T06:07:12.913Z,98571.78
2017-09-26T06:07:44.565Z,98573.91
2017-09-26T06:08:16.210Z,98571.35
2017-09-26T06:08:47.852Z,98571.78
2017-09-26T06:09:19.498Z,98571.78
2017-09-26T06:09:51.203Z,98574.76
2017-09-26T06:10:22.854Z,98567.98
2017-09-26T06:10:54.497Z,98573.48
2017-09-26T06:11:26.142Z,98562.88
2017-09-26T06:11:57.785Z,98574.79
2017-09-26T06:12:29.434Z,98570.11
2017-09-26T06:13:01.082Z,98573.94
2017-09-26T06:13:32.726Z,98577.80
2017-09-26T06:14:04.372Z,98575.64
2017-09-26T06:14:36.017Z,98572.70
2017-09-26T06:15:07.891Z,98570.14